Girton, United Kingdom
Current Conditions -  °F | °C
As of 7:50 PM on Thursday 20 Nov 2014 (Local Time) from EGSC Reporting Station
Light Fog Light Fog  
Wind Chill: 39°   Ceiling: Unl
Heat Index: 39°   Visibility: 4mi
Dew Point: 39°   Wind: 2mph
Humidity: 100%   Direction: 20°NNE
Pressure: 30.27"   Gusts: NA
Location:  52.23°N, 0.08°E
Report Text: EGSC 201950Z 02002KT 6000 MIFG NSC 04/04 Q1025
Loading
Personal Weather Stations






























Interactive Weather Map New forecast layout! Learn more

10-Day Weather Forecast

Advertisements
Track Severe Weather on mobile